Terminal Aerodrome Forecast
Issued by NWS Omaha/Valley, NE

Home | Current Version | Previous Version | Text Only | Print | Product List | Glossary On
Versions: 1 2 3 4 5 6 7 8 9 10 11 12 13 14 15 16 17 18 19 20 21 22 23 24 25 26 27 28 29 30 31 32 33 34 35
000
FTUS43 KOAX 031122 CCA
TAFOFK
TAF COR
KOFK 031122Z 0312/0412 10005KT P6SM BKN080
      TEMPO 0312/0316 6SM -SHRA BR OVC060
     FM032300 12007KT P6SM OVC080 PROB30 0408/0412 6SM -TSRA
      OVC050CB=

USA.gov is the U.S. government's official web portal to all federal, state and local government web resources and services.